Time;durP1;ratioP1;P1;durP2;ratioP2;P2;SDS_P1;SDS_P2;PMS_P1;PMS_P2;Temp;Humidity;BMP_temperature;BMP_pressure;BME280_temperature;BME280_humidity;BME280_pressure;Samples;Min_cycle;Max_cycle;Signal;HPM_P1;HPM_P2
2021/06/30 00:01:51;;;;;;;1999.90;999.90;;;11.50;99.90;;;;;;5094273;28;20170;-47
2021/06/30 00:04:18;;;;;;;1999.90;999.90;;;11.60;99.90;;;;;;5094449;28;20164;-47
2021/06/30 00:06:44;;;;;;;1999.90;999.90;;;11.60;99.90;;;;;;5094084;28;20168;-44
2021/06/30 00:09:12;;;;;;;1999.90;999.90;;;11.60;99.90;;;;;;5094172;28;20522;-47
2021/06/30 00:11:39;;;;;;;1999.90;999.90;;;11.60;99.90;;;;;;5094044;28;20391;-44
2021/06/30 00:14:06;;;;;;;1999.90;999.90;;;11.60;99.90;;;;;;5094090;28;20529;-45
2021/06/30 00:16:33;;;;;;;1999.90;999.90;;;11.60;99.90;;;;;;5094081;28;20195;-44
2021/06/30 00:19:05;;;;;;;1999.90;999.90;;;11.60;99.90;;;;;;5094205;28;20164;-44
2021/06/30 00:21:32;;;;;;;1999.90;999.90;;;11.60;99.90;;;;;;5093998;28;20171;-49
2021/06/30 00:23:59;;;;;;;1999.90;999.90;;;11.60;99.90;;;;;;5094048;28;20172;-44
2021/06/30 00:26:27;;;;;;;1999.90;999.90;;;11.70;99.90;;;;;;5093833;28;20171;-49
2021/06/30 00:28:54;;;;;;;1999.90;999.90;;;11.70;99.90;;;;;;5093249;28;20163;-48
2021/06/30 00:31:22;;;;;;;1999.90;999.90;;;11.70;99.90;;;;;;5094133;28;20168;-45
2021/06/30 00:33:50;;;;;;;1999.90;999.90;;;11.70;99.90;;;;;;5093453;28;20167;-45
2021/06/30 00:36:16;;;;;;;1999.90;999.90;;;11.70;99.90;;;;;;5093519;28;20199;-46
2021/06/30 00:38:43;;;;;;;1999.90;999.90;;;11.70;99.90;;;;;;5094026;28;20689;-47
2021/06/30 00:41:10;;;;;;;1999.90;999.90;;;11.70;99.90;;;;;;5093324;28;20179;-48
2021/06/30 00:43:37;;;;;;;1999.90;999.90;;;11.80;99.90;;;;;;5093486;28;20164;-45
2021/06/30 00:46:03;;;;;;;1999.90;999.90;;;11.80;99.90;;;;;;5093662;28;20255;-45
2021/06/30 00:48:30;;;;;;;1999.90;999.90;;;11.80;99.90;;;;;;5093494;28;20203;-45
2021/06/30 00:50:57;;;;;;;1999.90;999.90;;;11.80;99.90;;;;;;5093289;28;20511;-46
2021/06/30 00:53:24;;;;;;;1999.90;999.90;;;11.80;99.90;;;;;;5093291;28;20163;-46
2021/06/30 00:55:53;;;;;;;1999.90;999.90;;;11.80;99.90;;;;;;5093192;28;20628;-46
2021/06/30 00:58:20;;;;;;;1999.90;999.90;;;11.80;99.90;;;;;;5093330;28;20160;-44
2021/06/30 01:00:49;;;;;;;1999.90;999.90;;;11.80;99.90;;;;;;5093251;28;20168;-45
2021/06/30 01:03:16;;;;;;;1999.90;999.90;;;11.80;99.90;;;;;;5093061;28;20179;-44
2021/06/30 01:05:43;;;;;;;1999.90;999.90;;;11.80;99.90;;;;;;5093222;28;20220;-48
2021/06/30 01:08:10;;;;;;;1999.90;999.90;;;11.80;99.90;;;;;;5092998;28;20524;-47
2021/06/30 01:10:37;;;;;;;1999.90;999.90;;;11.80;99.90;;;;;;5092593;28;20224;-44
2021/06/30 01:13:06;;;;;;;1999.90;999.90;;;11.80;99.90;;;;;;5093394;28;20171;-44
2021/06/30 01:15:46;;;;;;;1999.90;999.90;;;11.80;99.90;;;;;;5093082;28;20180;-44
2021/06/30 01:18:13;;;;;;;1999.90;999.90;;;11.80;99.90;;;;;;5092768;28;20526;-48
2021/06/30 01:20:40;;;;;;;1999.90;999.90;;;11.80;99.90;;;;;;5093052;28;20210;-44
2021/06/30 01:23:11;;;;;;;1999.90;999.90;;;11.80;99.90;;;;;;5092710;28;20167;-46
2021/06/30 01:25:38;;;;;;;1999.90;999.90;;;11.80;99.90;;;;;;5092728;28;20175;-45
2021/06/30 01:28:05;;;;;;;1999.90;999.90;;;11.70;99.90;;;;;;5092795;28;20187;-43
2021/06/30 01:30:32;;;;;;;1999.90;999.90;;;11.70;99.90;;;;;;5092394;28;20623;-46
2021/06/30 01:32:59;;;;;;;1999.90;999.90;;;11.70;99.90;;;;;;5092522;28;20248;-44
2021/06/30 01:35:27;;;;;;;1999.90;999.90;;;11.70;99.90;;;;;;5092562;28;20701;-45
2021/06/30 01:37:55;;;;;;;1999.90;999.90;;;11.70;99.90;;;;;;5092572;28;20168;-46
2021/06/30 01:40:22;;;;;;;1999.90;999.90;;;11.70;99.90;;;;;;5091836;28;20179;-47
2021/06/30 01:42:51;;;;;;;1999.90;999.90;;;11.60;99.90;;;;;;5092371;28;20403;-45
2021/06/30 01:45:18;;;;;;;1999.90;999.90;;;11.60;99.90;;;;;;5092082;28;20172;-44
2021/06/30 01:47:45;;;;;;;1999.90;999.90;;;11.60;99.90;;;;;;5092624;28;20168;-46
2021/06/30 01:50:13;;;;;;;1999.90;999.90;;;11.60;99.90;;;;;;5092110;28;20210;-43
2021/06/30 01:52:40;;;;;;;1999.90;999.90;;;11.50;99.90;;;;;;5092178;28;20171;-44
2021/06/30 01:55:07;;;;;;;1999.90;999.90;;;11.50;99.90;;;;;;5092754;28;20168;-44
2021/06/30 01:57:40;;;;;;;1999.90;999.90;;;11.30;99.90;;;;;;5091866;28;20184;-43
2021/06/30 02:00:08;;;;;;;1999.90;999.90;;;11.30;99.90;;;;;;5092011;28;20230;-43
2021/06/30 02:02:35;;;;;;;1999.90;999.90;;;11.30;99.90;;;;;;5092178;28;20200;-46
2021/06/30 02:05:35;;;;;;;1999.90;999.90;;;11.20;99.90;;;;;;5092094;28;20243;-44
2021/06/30 02:08:02;;;;;;;1999.90;999.90;;;11.20;99.90;;;;;;5087354;28;20192;-44
2021/06/30 02:10:29;;;;;;;1999.90;999.90;;;11.10;99.90;;;;;;5091650;28;20437;-45
2021/06/30 02:12:57;;;;;;;1999.90;999.90;;;11.10;99.90;;;;;;5091395;28;20176;-43
2021/06/30 02:15:29;;;;;;;1999.90;999.90;;;11.00;99.90;;;;;;5092049;28;20245;-44
2021/06/30 02:17:58;;;;;;;1999.90;999.90;;;11.10;99.90;;;;;;5091642;28;20618;-43
2021/06/30 02:20:26;;;;;;;1999.90;999.90;;;11.10;99.90;;;;;;5091796;28;20254;-46
2021/06/30 02:22:54;;;;;;;1999.90;999.90;;;11.20;99.90;;;;;;5092041;28;20259;-43
2021/06/30 02:25:26;;;;;;;1999.90;999.90;;;11.20;99.90;;;;;;5091528;28;20176;-47
2021/06/30 02:27:54;;;;;;;1999.90;999.90;;;11.30;99.90;;;;;;5091569;28;20217;-43
2021/06/30 02:30:27;;;;;;;1999.90;999.90;;;11.20;99.90;;;;;;5091702;28;20168;-46
2021/06/30 02:32:56;;;;;;;1999.90;999.90;;;11.20;99.90;;;;;;5091396;28;20160;-43
2021/06/30 02:35:24;;;;;;;1999.90;999.90;;;11.30;99.90;;;;;;5091360;28;20239;-48
2021/06/30 02:37:54;;;;;;;1999.90;999.90;;;11.20;99.90;;;;;;5091576;28;20626;-45
2021/06/30 02:40:22;;;;;;;1999.90;999.90;;;11.30;99.90;;;;;;5091353;28;20175;-43
2021/06/30 02:42:49;;;;;;;1999.90;999.90;;;11.30;99.90;;;;;;5091839;28;20171;-47
2021/06/30 02:45:18;;;;;;;1999.90;999.90;;;11.30;99.90;;;;;;5091431;28;20681;-43
2021/06/30 02:47:46;;;;;;;1999.90;999.90;;;11.30;99.90;;;;;;5091179;28;20203;-47
2021/06/30 02:50:16;;;;;;;1999.90;999.90;;;11.40;99.90;;;;;;5091756;28;20163;-43
2021/06/30 02:52:43;;;;;;;1999.90;999.90;;;11.40;99.90;;;;;;5093843;28;20167;-44
2021/06/30 02:55:11;;;;;;;1999.90;999.90;;;11.40;99.90;;;;;;5095481;28;20171;-44
2021/06/30 02:57:38;;;;;;;1999.90;999.90;;;11.30;99.90;;;;;;5095730;28;20175;-44
2021/06/30 03:00:10;;;;;;;1999.90;999.90;;;11.40;99.90;;;;;;5095496;28;20164;-43
2021/06/30 03:02:37;;;;;;;1999.90;999.90;;;11.40;99.90;;;;;;5095671;28;20163;-47
2021/06/30 03:05:05;;;;;;;1999.90;999.90;;;11.40;99.90;;;;;;5095381;28;20281;-45
2021/06/30 03:07:31;;;;;;;1999.90;999.90;;;11.40;99.90;;;;;;5095316;28;20250;-44
2021/06/30 03:09:59;;;;;;;1999.90;999.90;;;11.40;99.90;;;;;;5095206;28;20220;-45
2021/06/30 03:12:25;;;;;;;1999.90;999.90;;;11.40;99.90;;;;;;5095288;28;20690;-44
2021/06/30 03:14:52;;;;;;;1999.90;999.90;;;11.40;99.90;;;;;;5095068;28;20183;-43
2021/06/30 03:17:19;;;;;;;1999.90;999.90;;;11.40;99.90;;;;;;5095145;28;20653;-47
2021/06/30 03:19:45;;;;;;;1999.90;999.90;;;11.40;99.90;;;;;;5095139;28;20168;-44
2021/06/30 03:22:12;;;;;;;1999.90;999.90;;;11.40;99.90;;;;;;5094915;28;20262;-45
2021/06/30 03:24:39;;;;;;;1999.90;999.90;;;11.40;99.90;;;;;;5095274;28;20171;-44
2021/06/30 03:27:06;;;;;;;1999.90;999.90;;;11.40;99.90;;;;;;5094958;28;20172;-47
2021/06/30 03:29:33;;;;;;;1999.90;999.90;;;11.40;99.90;;;;;;5076563;28;20201;-43
2021/06/30 03:31:59;;;;;;;1999.90;999.90;;;11.40;99.90;;;;;;5095117;28;20655;-47
2021/06/30 03:34:26;;;;;;;1999.90;999.90;;;11.40;99.90;;;;;;5094646;28;20168;-43
2021/06/30 03:36:53;;;;;;;1999.90;999.90;;;11.40;99.90;;;;;;5094639;28;20227;-44
2021/06/30 03:39:20;;;;;;;1999.90;999.90;;;11.50;99.90;;;;;;5094918;28;20252;-44
2021/06/30 03:41:47;;;;;;;1999.90;999.90;;;11.50;99.90;;;;;;5094575;28;20204;-48
2021/06/30 03:44:13;;;;;;;1999.90;999.90;;;11.50;99.90;;;;;;5094747;28;20577;-45
2021/06/30 03:46:40;;;;;;;1999.90;999.90;;;11.50;99.90;;;;;;5094688;28;20175;-45
2021/06/30 03:49:07;;;;;;;1999.90;999.90;;;11.50;99.90;;;;;;5094675;28;20168;-45
2021/06/30 03:51:34;;;;;;;1999.90;999.90;;;11.50;99.90;;;;;;5094747;28;20289;-44
2021/06/30 03:54:00;;;;;;;1999.90;999.90;;;11.50;99.90;;;;;;5094375;28;20183;-43
2021/06/30 03:56:27;;;;;;;1999.90;999.90;;;11.40;99.90;;;;;;5094496;28;20296;-47
2021/06/30 03:58:55;;;;;;;1999.90;999.90;;;11.40;99.90;;;;;;5094536;28;20176;-43
2021/06/30 04:01:23;;;;;;;1999.90;999.90;;;11.40;99.90;;;;;;5094407;28;20164;-46
2021/06/30 04:03:59;;;;;;;1999.90;999.90;;;11.40;99.90;;;;;;5093184;28;20207;-47
2021/06/30 04:06:26;;;;;;;1999.90;999.90;;;11.40;99.90;;;;;;5094524;28;20160;-44
2021/06/30 04:08:52;;;;;;;1999.90;999.90;;;11.40;99.90;;;;;;5094138;28;20175;-44
2021/06/30 04:11:19;;;;;;;1999.90;999.90;;;11.40;99.90;;;;;;5093868;28;20565;-49
2021/06/30 04:13:46;;;;;;;1999.90;999.90;;;11.40;99.90;;;;;;5094365;28;20164;-46
2021/06/30 04:16:13;;;;;;;1999.90;999.90;;;11.40;99.90;;;;;;5093789;28;20195;-44
2021/06/30 04:18:40;;;;;;;1999.90;999.90;;;11.40;99.90;;;;;;5094039;28;20167;-44
2021/06/30 04:21:09;;;;;;;1999.90;999.90;;;11.40;99.90;;;;;;5094450;28;20168;-45
2021/06/30 04:23:36;;;;;;;1999.90;999.90;;;11.40;99.90;;;;;;5093869;28;20179;-45
2021/06/30 04:26:05;;;;;;;1999.90;999.90;;;11.40;99.90;;;;;;5094176;28;20160;-48
2021/06/30 04:28:32;;;;;;;1999.90;999.90;;;11.40;99.90;;;;;;5093841;28;20529;-46
2021/06/30 04:30:59;;;;;;;1999.90;999.90;;;11.30;99.90;;;;;;5093695;28;20674;-48
2021/06/30 04:33:26;;;;;;;1999.90;999.90;;;11.30;99.90;;;;;;5093735;28;20172;-44
2021/06/30 04:35:53;;;;;;;1999.90;999.90;;;11.20;99.90;;;;;;5093505;28;20349;-46
2021/06/30 04:38:20;;;;;;;1999.90;999.90;;;11.20;99.90;;;;;;5093563;28;20163;-49
2021/06/30 04:40:47;;;;;;;1999.90;999.90;;;11.20;99.90;;;;;;5093743;28;20634;-48
2021/06/30 04:43:13;;;;;;;1999.90;999.90;;;11.20;99.90;;;;;;5093372;28;20179;-46
2021/06/30 04:45:40;;;;;;;1999.90;999.90;;;11.20;99.90;;;;;;5093297;28;20179;-44
2021/06/30 04:48:07;;;;;;;1999.90;999.90;;;11.20;99.90;;;;;;5093815;28;20178;-44
2021/06/30 04:50:34;;;;;;;1999.90;999.90;;;11.20;99.90;;;;;;5093347;28;20459;-46
2021/06/30 04:53:00;;;;;;;1999.90;999.90;;;11.20;99.90;;;;;;5093064;28;20188;-47
2021/06/30 04:55:27;;;;;;;1999.90;999.90;;;11.20;99.90;;;;;;5093537;28;20196;-43
2021/06/30 04:57:54;;;;;;;1999.90;999.90;;;11.20;99.90;;;;;;5092886;28;20199;-43
2021/06/30 05:00:21;;;;;;;1999.90;999.90;;;11.20;99.90;;;;;;5093148;28;20175;-49
2021/06/30 05:02:47;;;;;;;1999.90;999.90;;;11.20;99.90;;;;;;5093448;28;20186;-48
2021/06/30 05:05:14;;;;;;;1999.90;999.90;;;11.10;99.90;;;;;;5092958;28;20626;-45
2021/06/30 05:07:41;;;;;;;1999.90;999.90;;;11.10;99.90;;;;;;5092874;28;20186;-47
2021/06/30 05:10:09;;;;;;;1999.90;999.90;;;11.10;99.90;;;;;;5092610;28;20237;-43
2021/06/30 05:12:35;;;;;;;1999.90;999.90;;;11.00;99.90;;;;;;5093127;28;20642;-46
2021/06/30 05:15:02;;;;;;;1999.90;999.90;;;11.10;99.90;;;;;;5092012;28;20171;-44
2021/06/30 05:17:29;;;;;;;1999.90;999.90;;;11.10;99.90;;;;;;5092811;28;20262;-46
2021/06/30 05:19:56;;;;;;;1999.90;999.90;;;11.00;99.90;;;;;;5092591;28;20246;-45
2021/06/30 05:22:23;;;;;;;1999.90;999.90;;;11.00;99.90;;;;;;5093076;28;20516;-43
2021/06/30 05:24:49;;;;;;;1999.90;999.90;;;10.90;99.90;;;;;;5092746;28;20213;-50
2021/06/30 05:27:16;;;;;;;1999.90;999.90;;;10.90;99.90;;;;;;5092375;28;20638;-43
2021/06/30 05:29:43;;;;;;;1999.90;999.90;;;10.80;99.90;;;;;;5092992;28;20168;-47
2021/06/30 05:32:10;;;;;;;1999.90;999.90;;;10.80;99.90;;;;;;5092497;28;20164;-44
2021/06/30 05:34:36;;;;;;;1999.90;999.90;;;10.80;99.90;;;;;;5092486;28;20258;-43
2021/06/30 05:37:03;;;;;;;1999.90;999.90;;;10.80;99.90;;;;;;5092776;28;20248;-48
2021/06/30 05:39:30;;;;;;;1999.90;999.90;;;10.80;99.90;;;;;;5092230;28;20612;-44
2021/06/30 05:41:57;;;;;;;1999.90;999.90;;;10.90;99.90;;;;;;5092136;28;20164;-47
2021/06/30 05:44:24;;;;;;;1999.90;999.90;;;10.90;99.90;;;;;;5074217;28;20172;-43
2021/06/30 05:46:50;;;;;;;1999.90;999.90;;;10.90;99.90;;;;;;5092073;28;20178;-51
2021/06/30 05:49:17;;;;;;;1999.90;999.90;;;10.90;99.90;;;;;;5092354;28;20160;-46
2021/06/30 05:51:44;;;;;;;1999.90;999.90;;;10.80;99.90;;;;;;5091921;28;20175;-45
2021/06/30 05:54:11;;;;;;;1999.90;999.90;;;10.90;99.90;;;;;;5092078;28;20526;-45
2021/06/30 05:56:40;;;;;;;1999.90;999.90;;;10.80;99.90;;;;;;5091792;28;20211;-42
2021/06/30 05:59:07;;;;;;;1999.90;999.90;;;10.80;99.90;;;;;;5092308;28;20662;-43
2021/06/30 06:01:34;;;;;;;1999.90;999.90;;;10.80;99.90;;;;;;5091611;28;20217;-42
2021/06/30 06:04:01;;;;;;;1999.90;999.90;;;10.90;99.90;;;;;;5092029;28;20604;-47
2021/06/30 06:06:28;;;;;;;1999.90;999.90;;;10.90;99.90;;;;;;5091568;28;20227;-47
2021/06/30 06:08:55;;;;;;;1999.90;999.90;;;11.00;99.90;;;;;;5091413;28;20263;-56
2021/06/30 06:11:23;;;;;;;1999.90;999.90;;;10.90;99.90;;;;;;5091706;28;20235;-41
2021/06/30 06:13:50;;;;;;;1999.90;999.90;;;11.10;99.90;;;;;;5091237;28;20211;-51
2021/06/30 06:16:20;;;;;;;1999.90;999.90;;;11.20;99.90;;;;;;5091199;28;20203;-42
2021/06/30 06:18:48;;;;;;;1999.90;999.90;;;11.30;99.90;;;;;;5091158;28;20213;-42
2021/06/30 06:21:16;;;;;;;1999.90;999.90;;;11.50;99.90;;;;;;5088576;28;20243;-50
2021/06/30 06:23:43;;;;;;;1999.90;999.90;;;11.70;99.90;;;;;;5090619;28;20174;-51
2021/06/30 06:26:12;;;;;;;1999.90;999.90;;;12.70;99.90;;;;;;5089240;28;20172;-47
2021/06/30 06:28:39;;;;;;;1999.90;999.90;;;12.30;99.90;;;;;;5090858;28;20167;-46
2021/06/30 06:31:10;;;;;;;1999.90;999.90;;;11.80;99.90;;;;;;5090745;28;20705;-48
2021/06/30 06:33:37;;;;;;;1999.90;999.90;;;11.60;99.90;;;;;;5088550;28;20156;-55
2021/06/30 06:36:05;;;;;;;1999.90;999.90;;;11.90;99.90;;;;;;5089152;28;20587;-45
2021/06/30 06:38:32;;;;;;;1999.90;999.90;;;12.20;99.90;;;;;;5091026;28;20214;-51
2021/06/30 06:40:59;;;;;;;1999.90;999.90;;;12.80;99.90;;;;;;5091079;28;20252;-47
2021/06/30 06:43:26;;;;;;;1999.90;999.90;;;12.80;99.90;;;;;;5090420;28;20172;-47
2021/06/30 06:45:53;;;;;;;1999.90;999.90;;;12.90;99.90;;;;;;5088905;28;20233;-44
2021/06/30 06:48:19;;;;;;;1999.90;999.90;;;13.30;99.90;;;;;;5090121;28;20156;-53
2021/06/30 06:50:46;;;;;;;1999.90;999.90;;;13.60;99.90;;;;;;5089327;28;20175;-53
2021/06/30 06:53:13;;;;;;;1999.90;999.90;;;13.60;99.90;;;;;;5090720;28;20156;-43
2021/06/30 06:55:40;;;;;;;1999.90;999.90;;;13.20;99.90;;;;;;5089275;28;20207;-47
2021/06/30 06:58:08;;;;;;;1999.90;999.90;;;12.80;99.90;;;;;;5090159;28;20183;-52
2021/06/30 07:00:36;;;;;;;1999.90;999.90;;;13.20;99.90;;;;;;5090656;28;20638;-51
2021/06/30 07:03:03;;;;;;;1999.90;999.90;;;13.10;99.90;;;;;;5090182;28;20193;-61
2021/06/30 07:05:29;;;;;;;1999.90;999.90;;;13.00;99.90;;;;;;5090109;28;20628;-48
2021/06/30 07:07:56;;;;;;;1999.90;999.90;;;12.70;99.90;;;;;;5090066;28;20529;-45
2021/06/30 07:10:23;;;;;;;1999.90;999.90;;;12.70;99.90;;;;;;5090289;28;20680;-43
2021/06/30 07:12:54;;;;;;;1999.90;999.90;;;12.40;99.90;;;;;;5070100;28;20646;-42
2021/06/30 07:15:20;;;;;;;1999.90;999.90;;;12.30;99.90;;;;;;5069876;28;20185;-46
2021/06/30 07:17:47;;;;;;;1999.90;999.90;;;12.40;99.90;;;;;;5070032;28;20255;-47
2021/06/30 07:20:14;;;;;;;1999.90;999.90;;;12.60;99.90;;;;;;5069856;28;20599;-43
2021/06/30 07:22:41;;;;;;;1999.90;999.90;;;13.00;99.90;;;;;;5069614;28;20172;-45
2021/06/30 07:25:08;;;;;;;1999.90;999.90;;;12.80;99.90;;;;;;5070022;28;20219;-43
2021/06/30 07:27:35;;;;;;;1999.90;999.90;;;12.60;99.90;;;;;;5070494;28;20241;-48
2021/06/30 07:30:02;;;;;;;1999.90;999.90;;;12.60;99.90;;;;;;5069663;28;20224;-45
2021/06/30 07:32:29;;;;;;;1999.90;999.90;;;13.30;99.90;;;;;;5070111;28;20169;-51
2021/06/30 07:34:56;;;;;;;1999.90;999.90;;;13.90;99.90;;;;;;5069901;28;20172;-41
2021/06/30 07:37:22;;;;;;;1999.90;999.90;;;14.10;99.90;;;;;;5070121;28;20284;-47
2021/06/30 07:39:49;;;;;;;1999.90;999.90;;;13.90;99.90;;;;;;5072681;28;20176;-55
2021/06/30 07:42:16;;;;;;;1999.90;999.90;;;13.20;99.90;;;;;;5073992;28;20179;-56
2021/06/30 07:44:45;;;;;;;1999.90;999.90;;;13.00;99.90;;;;;;5073220;28;20608;-54
2021/06/30 07:47:11;;;;;;;1999.90;999.90;;;12.80;99.90;;;;;;5072715;28;20521;-50
2021/06/30 07:49:38;;;;;;;1999.90;999.90;;;13.60;99.90;;;;;;5073811;28;20176;-48
2021/06/30 07:52:05;;;;;;;1999.90;999.90;;;14.80;99.90;;;;;;5073447;28;20187;-56
2021/06/30 07:54:33;;;;;;;1999.90;999.90;;;14.40;99.90;;;;;;5073714;28;20219;-50
2021/06/30 07:57:01;;;;;;;1999.90;999.90;;;14.30;99.90;;;;;;5073136;28;20237;-58
2021/06/30 07:59:27;;;;;;;1999.90;999.90;;;13.90;99.90;;;;;;5055657;28;20176;-45
2021/06/30 08:01:54;;;;;;;1999.90;999.90;;;13.50;99.90;;;;;;5072952;28;20631;-47
2021/06/30 08:04:21;;;;;;;1999.90;999.90;;;13.40;99.90;;;;;;5073398;28;20532;-59
2021/06/30 08:06:49;;;;;;;1999.90;999.90;;;13.30;99.90;;;;;;5072787;28;20271;-54
2021/06/30 08:09:17;;;;;;;1999.90;999.90;;;13.10;99.90;;;;;;5073282;28;20191;-54
2021/06/30 08:11:44;;;;;;;1999.90;999.90;;;13.30;99.90;;;;;;5073039;28;20610;-52
2021/06/30 08:14:12;;;;;;;1999.90;999.90;;;13.10;99.90;;;;;;5072836;28;20230;-55
2021/06/30 08:16:38;;;;;;;1999.90;999.90;;;12.90;99.90;;;;;;5072907;28;20237;-45
2021/06/30 08:19:08;;;;;;;1999.90;999.90;;;12.90;99.90;;;;;;5072666;28;20173;-45
2021/06/30 08:21:35;;;;;;;1999.90;999.90;;;13.00;99.90;;;;;;5072558;28;20180;-64
2021/06/30 08:24:02;;;;;;;1999.90;999.90;;;13.00;99.90;;;;;;5072925;28;20169;-66
2021/06/30 08:26:29;;;;;;;1999.90;999.90;;;13.50;99.90;;;;;;5072465;28;20171;-64
2021/06/30 08:28:56;;;;;;;1999.90;999.90;;;13.50;99.90;;;;;;5072773;28;20257;-64
2021/06/30 08:31:23;;;;;;;1999.90;999.90;;;13.30;99.90;;;;;;5072577;28;20172;-69
2021/06/30 08:33:49;;;;;;;1999.90;999.90;;;13.20;99.90;;;;;;5072229;28;20582;-66
2021/06/30 08:36:16;;;;;;;1999.90;999.90;;;13.30;99.90;;;;;;5072690;28;20257;-50
2021/06/30 08:38:43;;;;;;;1999.90;999.90;;;13.80;99.90;;;;;;5072006;28;20165;-52
2021/06/30 08:41:10;;;;;;;1999.90;999.90;;;13.90;99.90;;;;;;5072398;28;20180;-40
2021/06/30 08:43:36;;;;;;;1999.90;999.90;;;13.80;99.90;;;;;;5072319;28;20168;-61
2021/06/30 08:46:07;;;;;;;1999.90;999.90;;;13.80;99.90;;;;;;5071673;28;20207;-51
2021/06/30 08:48:36;;;;;;;1999.90;999.90;;;13.90;99.90;;;;;;5072091;28;20160;-58
2021/06/30 08:51:03;;;;;;;1999.90;999.90;;;14.00;99.90;;;;;;5072370;28;20161;-55
2021/06/30 08:53:31;;;;;;;1999.90;999.90;;;14.20;99.90;;;;;;5072322;28;20524;-64
2021/06/30 08:55:58;;;;;;;1999.90;999.90;;;14.90;99.90;;;;;;5071819;28;20655;-50
2021/06/30 08:58:25;;;;;;;1999.90;999.90;;;15.30;99.90;;;;;;5072363;28;20214;-40
2021/06/30 09:00:53;;;;;;;1999.90;999.90;;;15.30;99.90;;;;;;5071956;28;20164;-41
2021/06/30 09:03:20;;;;;;;1999.90;999.90;;;15.00;99.90;;;;;;5071781;28;20591;-50
2021/06/30 09:08:43;;;;;;;1999.90;999.90;;;15.40;99.90;;;;;;5071945;28;20167;-50
2021/06/30 09:11:21;;;;;;;1999.90;999.90;;;15.80;99.90;;;;;;5071895;28;20208;-52
2021/06/30 09:14:07;;;;;;;1999.90;999.90;;;15.50;99.90;;;;;;5071616;28;20222;-50
2021/06/30 09:17:21;;;;;;;1999.90;999.90;;;15.20;99.90;;;;;;5071583;28;20549;-44
2021/06/30 09:19:54;;;;;;;1999.90;999.90;;;15.00;99.90;;;;;;5070745;28;20180;-48
2021/06/30 09:22:28;;;;;;;1999.90;999.90;;;14.80;99.90;;;;;;5071340;28;20165;-60
2021/06/30 09:24:57;;;;;;;1999.90;999.90;;;14.90;99.90;;;;;;5071972;28;20168;-51
2021/06/30 09:27:46;;;;;;;1999.90;999.90;;;15.10;99.90;;;;;;5071500;28;20211;-51
2021/06/30 09:30:14;;;;;;;1999.90;999.90;;;15.30;99.90;;;;;;5071194;28;20186;-57
2021/06/30 09:32:55;;;;;;;1999.90;999.90;;;15.60;99.90;;;;;;5071587;28;20178;-62
2021/06/30 09:35:36;;;;;;;1999.90;999.90;;;15.30;99.90;;;;;;5071224;28;20633;-48
2021/06/30 09:38:30;;;;;;;1999.90;999.90;;;15.00;99.90;;;;;;5071267;28;20197;-53
2021/06/30 09:40:57;;;;;;;1999.90;999.90;;;15.10;99.90;;;;;;5060063;28;20206;-54
2021/06/30 09:43:28;;;;;;;1999.90;999.90;;;15.00;99.90;;;;;;5071310;28;20594;-61
2021/06/30 09:45:57;;;;;;;1999.90;999.90;;;15.20;99.90;;;;;;5071014;28;20184;-39
2021/06/30 09:48:29;;;;;;;1999.90;999.90;;;15.10;99.90;;;;;;5071466;28;20650;-39
2021/06/30 09:50:56;;;;;;;1999.90;999.90;;;15.00;99.90;;;;;;5070995;28;20172;-41
2021/06/30 09:53:36;;;;;;;1999.90;999.90;;;15.20;99.90;;;;;;5071356;28;20161;-41
2021/06/30 09:56:14;;;;;;;1999.90;999.90;;;15.10;99.90;;;;;;5071085;28;20577;-55
2021/06/30 09:58:41;;;;;;;1999.90;999.90;;;15.10;99.90;;;;;;5070437;28;20159;-39
2021/06/30 10:01:17;;;;;;;1999.90;999.90;;;15.10;99.90;;;;;;5070969;28;20174;-39
2021/06/30 10:03:44;;;;;;;1999.90;999.90;;;15.20;99.90;;;;;;5070742;28;20660;-42
2021/06/30 10:06:28;;;;;;;1999.90;999.90;;;15.10;99.90;;;;;;5071258;28;20165;-41
2021/06/30 10:08:57;;;;;;;1999.90;999.90;;;15.10;99.90;;;;;;5071005;28;20195;-48
2021/06/30 10:11:25;;;;;;;1999.90;999.90;;;15.00;99.90;;;;;;5071165;28;20220;-41
2021/06/30 10:13:52;;;;;;;1999.90;999.90;;;15.10;99.90;;;;;;5070784;28;20199;-47
2021/06/30 10:16:21;;;;;;;1999.90;999.90;;;15.10;99.90;;;;;;5052652;28;20562;-39
2021/06/30 10:18:54;;;;;;;1999.90;999.90;;;15.10;99.90;;;;;;5070765;28;20165;-40
2021/06/30 10:21:23;;;;;;;1999.90;999.90;;;15.10;99.90;;;;;;5070455;28;20184;-40
2021/06/30 10:23:51;;;;;;;1999.90;999.90;;;15.10;99.90;;;;;;5070745;28;20631;-48
2021/06/30 10:26:19;;;;;;;1999.90;999.90;;;15.20;99.90;;;;;;5070377;28;20170;-47
2021/06/30 10:29:01;;;;;;;1999.90;999.90;;;15.30;99.90;;;;;;5070855;28;20164;-43
2021/06/30 10:31:36;;;;;;;1999.90;999.90;;;15.30;99.90;;;;;;5070334;28;20191;-46
2021/06/30 10:34:05;;;;;;;1999.90;999.90;;;15.20;99.90;;;;;;5070565;28;20177;-39
2021/06/30 10:36:54;;;;;;;1999.90;999.90;;;15.20;99.90;;;;;;5070712;28;20261;-58
2021/06/30 10:39:42;;;;;;;1999.90;999.90;;;15.20;99.90;;;;;;5070523;28;20568;-64
2021/06/30 10:42:34;;;;;;;1999.90;999.90;;;15.10;99.90;;;;;;5070630;28;20637;-52
2021/06/30 10:45:21;;;;;;;1999.90;999.90;;;15.10;99.90;;;;;;5070297;28;20178;-60
2021/06/30 10:48:01;;;;;;;1999.90;999.90;;;15.10;99.90;;;;;;5069704;28;20167;-48
2021/06/30 10:50:41;;;;;;;1999.90;999.90;;;15.20;99.90;;;;;;5070201;28;20174;-51
2021/06/30 10:53:23;;;;;;;1999.90;999.90;;;15.10;99.90;;;;;;5070217;28;20188;-68
2021/06/30 10:55:53;;;;;;;1999.90;999.90;;;15.10;99.90;;;;;;5070094;28;20208;-63
2021/06/30 10:58:25;;;;;;;1999.90;999.90;;;14.90;99.90;;;;;;5070244;28;20192;-63
2021/06/30 11:00:58;;;;;;;1999.90;999.90;;;14.90;99.90;;;;;;5069913;28;20226;-63
2021/06/30 11:03:31;;;;;;;1999.90;999.90;;;14.90;99.90;;;;;;5070591;28;20177;-54
2021/06/30 11:06:10;;;;;;;1999.90;999.90;;;14.80;99.90;;;;;;5069870;28;20618;-48
2021/06/30 11:09:06;;;;;;;1999.90;999.90;;;15.00;99.90;;;;;;5070007;28;20203;-48
2021/06/30 11:11:33;;;;;;;1999.90;999.90;;;14.80;99.90;;;;;;5069804;28;20228;-54
2021/06/30 11:14:08;;;;;;;1999.90;999.90;;;15.20;99.90;;;;;;5073208;28;20181;-48
2021/06/30 11:16:44;;;;;;;1999.90;999.90;;;15.60;99.90;;;;;;5074691;28;20194;-49
2021/06/30 11:21:53;;;;;;;1999.90;999.90;;;15.40;99.90;;;;;;5073985;28;20229;-60
2021/06/30 11:27:16;;;;;;;1999.90;999.90;;;15.50;99.90;;;;;;5074442;28;20173;-57
2021/06/30 11:29:43;;;;;;;1999.90;999.90;;;15.20;99.90;;;;;;5072993;28;20172;-55
2021/06/30 11:32:35;;;;;;;1999.90;999.90;;;14.70;99.90;;;;;;5074474;28;20173;-58
2021/06/30 11:35:09;;;;;;;1999.90;999.90;;;14.30;99.90;;;;;;5073467;28;20251;-47
2021/06/30 11:37:41;;;;;;;1999.90;999.90;;;14.10;99.90;;;;;;5074245;28;20273;-54
2021/06/30 11:40:21;;;;;;;1999.90;999.90;;;14.00;99.90;;;;;;5073707;28;20161;-48
2021/06/30 11:42:52;;;;;;;1999.90;999.90;;;13.90;99.90;;;;;;5074019;28;20618;-56
2021/06/30 11:45:30;;;;;;;1999.90;999.90;;;14.00;99.90;;;;;;5073848;28;20157;-60
2021/06/30 11:48:00;;;;;;;1999.90;999.90;;;13.90;99.90;;;;;;5073359;28;20247;-41
2021/06/30 11:50:47;;;;;;;1999.90;999.90;;;13.90;99.90;;;;;;5072990;28;20169;-40
2021/06/30 11:53:14;;;;;;;1999.90;999.90;;;13.90;99.90;;;;;;5073392;28;20211;-44
2021/06/30 11:55:43;;;;;;;1999.90;999.90;;;14.00;99.90;;;;;;5073274;28;20197;-47
2021/06/30 11:58:11;;;;;;;1999.90;999.90;;;13.90;99.90;;;;;;5073936;28;20180;-41
2021/06/30 12:00:43;;;;;;;1999.90;999.90;;;14.00;99.90;;;;;;5072888;28;20187;-61
2021/06/30 12:03:10;;;;;;;1999.90;999.90;;;14.00;99.90;;;;;;5073158;28;20177;-40
2021/06/30 12:05:41;;;;;;;1999.90;999.90;;;14.30;99.90;;;;;;5073329;28;20248;-43
2021/06/30 12:08:10;;;;;;;1999.90;999.90;;;14.40;99.90;;;;;;5071721;28;20195;-54
2021/06/30 12:10:40;;;;;;;1999.90;999.90;;;14.60;99.90;;;;;;5073408;28;20216;-47
2021/06/30 12:13:12;;;;;;;1999.90;999.90;;;14.70;99.90;;;;;;5070234;28;20694;-51
2021/06/30 12:15:43;;;;;;;1999.90;999.90;;;14.80;99.90;;;;;;5072640;28;20249;-60
2021/06/30 12:18:10;;;;;;;1999.90;999.90;;;14.80;99.90;;;;;;5073175;28;20161;-40